sensor_id;sensor_type;location;lat;lon;timestamp;temperature;humidity
81266;DHT22;70748;52.510;13.410;2023-09-12T00:00:54;19.80;71.50
81266;DHT22;70748;52.510;13.410;2023-09-12T00:03:22;19.80;71.60
81266;DHT22;70748;52.510;13.410;2023-09-12T00:05:53;19.70;71.70
81266;DHT22;70748;52.510;13.410;2023-09-12T00:08:19;19.70;71.70
81266;DHT22;70748;52.510;13.410;2023-09-12T00:10:44;19.70;71.70
81266;DHT22;70748;52.510;13.410;2023-09-12T00:13:10;19.70;71.90
81266;DHT22;70748;52.510;13.410;2023-09-12T00:15:39;19.70;72.10
81266;DHT22;70748;52.510;13.410;2023-09-12T00:18:04;19.60;72.30
81266;DHT22;70748;52.510;13.410;2023-09-12T00:20:30;19.70;72.10
81266;DHT22;70748;52.510;13.410;2023-09-12T00:22:56;19.60;71.90
81266;DHT22;70748;52.510;13.410;2023-09-12T00:25:21;19.60;72.00
81266;DHT22;70748;52.510;13.410;2023-09-12T00:27:47;19.60;72.20
81266;DHT22;70748;52.510;13.410;2023-09-12T00:30:14;19.60;72.00
81266;DHT22;70748;52.510;13.410;2023-09-12T00:32:40;19.50;71.90
81266;DHT22;70748;52.510;13.410;2023-09-12T00:35:06;19.50;72.10
81266;DHT22;70748;52.510;13.410;2023-09-12T00:37:32;19.50;72.20
81266;DHT22;70748;52.510;13.410;2023-09-12T00:39:58;19.50;71.90
81266;DHT22;70748;52.510;13.410;2023-09-12T00:42:27;19.50;71.80
81266;DHT22;70748;52.510;13.410;2023-09-12T00:44:52;19.40;71.90
81266;DHT22;70748;52.510;13.410;2023-09-12T00:47:19;19.40;71.90
81266;DHT22;70748;52.510;13.410;2023-09-12T00:49:46;19.40;72.00
81266;DHT22;70748;52.510;13.410;2023-09-12T00:52:13;19.30;71.90
81266;DHT22;70748;52.510;13.410;2023-09-12T00:54:39;19.30;71.80
81266;DHT22;70748;52.510;13.410;2023-09-12T00:57:06;19.30;71.80
81266;DHT22;70748;52.510;13.410;2023-09-12T00:59:32;19.30;71.90
81266;DHT22;70748;52.510;13.410;2023-09-12T01:01:58;19.30;72.10
81266;DHT22;70748;52.510;13.410;2023-09-12T01:04:25;19.30;72.00
81266;DHT22;70748;52.510;13.410;2023-09-12T01:06:51;19.20;72.10
81266;DHT22;70748;52.510;13.410;2023-09-12T01:09:17;19.20;72.10
81266;DHT22;70748;52.510;13.410;2023-09-12T01:11:43;19.20;72.10
81266;DHT22;70748;52.510;13.410;2023-09-12T01:14:08;19.10;72.00
81266;DHT22;70748;52.510;13.410;2023-09-12T01:16:34;19.20;72.10
81266;DHT22;70748;52.510;13.410;2023-09-12T01:19:00;19.10;72.10
81266;DHT22;70748;52.510;13.410;2023-09-12T01:27:41;19.10;72.40
81266;DHT22;70748;52.510;13.410;2023-09-12T01:30:10;19.00;72.50
81266;DHT22;70748;52.510;13.410;2023-09-12T01:32:36;19.00;72.60
81266;DHT22;70748;52.510;13.410;2023-09-12T01:35:03;19.00;72.50
81266;DHT22;70748;52.510;13.410;2023-09-12T01:37:32;19.00;72.60
81266;DHT22;70748;52.510;13.410;2023-09-12T01:39:58;19.00;72.80
81266;DHT22;70748;52.510;13.410;2023-09-12T01:42:24;18.90;72.60
81266;DHT22;70748;52.510;13.410;2023-09-12T01:44:55;18.90;72.70
81266;DHT22;70748;52.510;13.410;2023-09-12T01:47:22;18.90;72.70
81266;DHT22;70748;52.510;13.410;2023-09-12T01:49:52;18.90;72.80
81266;DHT22;70748;52.510;13.410;2023-09-12T01:52:19;18.90;72.80
81266;DHT22;70748;52.510;13.410;2023-09-12T01:54:46;18.90;72.80
81266;DHT22;70748;52.510;13.410;2023-09-12T01:57:13;18.80;72.80
81266;DHT22;70748;52.510;13.410;2023-09-12T01:59:39;18.80;72.90
81266;DHT22;70748;52.510;13.410;2023-09-12T02:02:05;18.80;72.80
81266;DHT22;70748;52.510;13.410;2023-09-12T02:04:32;18.80;73.00
81266;DHT22;70748;52.510;13.410;2023-09-12T02:06:58;18.80;73.10
81266;DHT22;70748;52.510;13.410;2023-09-12T02:09:24;18.80;73.20
81266;DHT22;70748;52.510;13.410;2023-09-12T02:11:51;18.80;73.30
81266;DHT22;70748;52.510;13.410;2023-09-12T02:14:16;18.70;73.30
81266;DHT22;70748;52.510;13.410;2023-09-12T02:16:43;18.70;73.10
81266;DHT22;70748;52.510;13.410;2023-09-12T02:19:09;18.70;73.10
81266;DHT22;70748;52.510;13.410;2023-09-12T02:21:35;18.70;73.20
81266;DHT22;70748;52.510;13.410;2023-09-12T02:24:00;18.70;73.10
81266;DHT22;70748;52.510;13.410;2023-09-12T02:26:26;18.70;73.20
81266;DHT22;70748;52.510;13.410;2023-09-12T02:28:52;18.70;73.40
81266;DHT22;70748;52.510;13.410;2023-09-12T02:31:17;18.70;73.50
81266;DHT22;70748;52.510;13.410;2023-09-12T02:33:43;18.60;73.50
81266;DHT22;70748;52.510;13.410;2023-09-12T02:36:08;18.60;73.70
81266;DHT22;70748;52.510;13.410;2023-09-12T02:38:34;18.60;73.60
81266;DHT22;70748;52.510;13.410;2023-09-12T02:41:00;18.60;73.60
81266;DHT22;70748;52.510;13.410;2023-09-12T02:43:27;18.60;73.60
81266;DHT22;70748;52.510;13.410;2023-09-12T02:45:53;18.50;73.60
81266;DHT22;70748;52.510;13.410;2023-09-12T02:48:18;18.50;73.70
81266;DHT22;70748;52.510;13.410;2023-09-12T02:50:45;18.50;73.70
81266;DHT22;70748;52.510;13.410;2023-09-12T02:53:10;18.50;73.70
81266;DHT22;70748;52.510;13.410;2023-09-12T02:55:39;18.50;74.00
81266;DHT22;70748;52.510;13.410;2023-09-12T02:58:06;18.50;73.90
81266;DHT22;70748;52.510;13.410;2023-09-12T03:00:32;18.40;73.90
81266;DHT22;70748;52.510;13.410;2023-09-12T03:02:57;18.40;74.00
81266;DHT22;70748;52.510;13.410;2023-09-12T03:05:23;18.40;74.00
81266;DHT22;70748;52.510;13.410;2023-09-12T03:07:48;18.40;74.00
81266;DHT22;70748;52.510;13.410;2023-09-12T03:10:14;18.40;74.10
81266;DHT22;70748;52.510;13.410;2023-09-12T03:12:40;18.40;74.20
81266;DHT22;70748;52.510;13.410;2023-09-12T03:15:06;18.40;74.20
81266;DHT22;70748;52.510;13.410;2023-09-12T03:17:32;18.40;74.20
81266;DHT22;70748;52.510;13.410;2023-09-12T03:19:58;18.40;74.20
81266;DHT22;70748;52.510;13.410;2023-09-12T03:22:23;18.40;74.20
81266;DHT22;70748;52.510;13.410;2023-09-12T03:24:49;18.40;74.30
81266;DHT22;70748;52.510;13.410;2023-09-12T03:27:15;18.30;74.50
81266;DHT22;70748;52.510;13.410;2023-09-12T03:29:47;18.30;74.60
81266;DHT22;70748;52.510;13.410;2023-09-12T03:32:12;18.30;74.60
81266;DHT22;70748;52.510;13.410;2023-09-12T03:34:38;18.30;74.80
81266;DHT22;70748;52.510;13.410;2023-09-12T03:37:03;18.30;75.10
81266;DHT22;70748;52.510;13.410;2023-09-12T03:39:29;18.30;75.20
81266;DHT22;70748;52.510;13.410;2023-09-12T03:41:55;18.30;75.40
81266;DHT22;70748;52.510;13.410;2023-09-12T03:44:20;18.30;75.70
81266;DHT22;70748;52.510;13.410;2023-09-12T03:46:49;18.30;75.70
81266;DHT22;70748;52.510;13.410;2023-09-12T03:49:18;18.20;75.70
81266;DHT22;70748;52.510;13.410;2023-09-12T03:51:43;18.20;75.70
81266;DHT22;70748;52.510;13.410;2023-09-12T03:54:09;18.20;75.90
81266;DHT22;70748;52.510;13.410;2023-09-12T03:56:34;18.10;76.00
81266;DHT22;70748;52.510;13.410;2023-09-12T03:59:00;18.10;76.30
81266;DHT22;70748;52.510;13.410;2023-09-12T04:01:26;18.10;76.60
81266;DHT22;70748;52.510;13.410;2023-09-12T04:03:52;18.10;76.70
81266;DHT22;70748;52.510;13.410;2023-09-12T04:06:18;18.00;76.70
81266;DHT22;70748;52.510;13.410;2023-09-12T04:08:44;18.00;76.80
81266;DHT22;70748;52.510;13.410;2023-09-12T04:11:09;18.00;77.20
81266;DHT22;70748;52.510;13.410;2023-09-12T04:13:36;18.00;77.50
81266;DHT22;70748;52.510;13.410;2023-09-12T04:16:02;17.90;77.50
81266;DHT22;70748;52.510;13.410;2023-09-12T04:18:27;17.90;77.60
81266;DHT22;70748;52.510;13.410;2023-09-12T04:20:53;17.90;77.40
81266;DHT22;70748;52.510;13.410;2023-09-12T04:23:20;17.90;77.40
81266;DHT22;70748;52.510;13.410;2023-09-12T04:25:46;17.90;77.50
81266;DHT22;70748;52.510;13.410;2023-09-12T04:28:12;17.90;77.70
81266;DHT22;70748;52.510;13.410;2023-09-12T04:30:37;17.90;77.60
81266;DHT22;70748;52.510;13.410;2023-09-12T04:33:05;17.80;77.40
81266;DHT22;70748;52.510;13.410;2023-09-12T04:35:32;17.80;77.40
81266;DHT22;70748;52.510;13.410;2023-09-12T04:37:58;17.80;77.40
81266;DHT22;70748;52.510;13.410;2023-09-12T04:40:23;17.80;77.40
81266;DHT22;70748;52.510;13.410;2023-09-12T04:42:49;17.80;77.40
81266;DHT22;70748;52.510;13.410;2023-09-12T04:45:14;17.80;77.40
81266;DHT22;70748;52.510;13.410;2023-09-12T04:47:40;17.80;77.30
81266;DHT22;70748;52.510;13.410;2023-09-12T04:50:06;17.90;77.30
81266;DHT22;70748;52.510;13.410;2023-09-12T04:52:31;17.90;77.20
81266;DHT22;70748;52.510;13.410;2023-09-12T04:54:57;17.90;77.10
81266;DHT22;70748;52.510;13.410;2023-09-12T04:57:22;17.90;77.10
81266;DHT22;70748;52.510;13.410;2023-09-12T04:59:48;18.00;77.10
81266;DHT22;70748;52.510;13.410;2023-09-12T05:02:13;18.00;77.10
81266;DHT22;70748;52.510;13.410;2023-09-12T05:04:39;18.10;77.10
81266;DHT22;70748;52.510;13.410;2023-09-12T05:07:05;18.10;76.90
81266;DHT22;70748;52.510;13.410;2023-09-12T05:09:30;18.20;76.80
81266;DHT22;70748;52.510;13.410;2023-09-12T05:11:56;18.30;76.70
81266;DHT22;70748;52.510;13.410;2023-09-12T05:14:22;18.40;76.70
81266;DHT22;70748;52.510;13.410;2023-09-12T05:16:47;18.40;76.90
81266;DHT22;70748;52.510;13.410;2023-09-12T05:19:13;18.50;76.80
81266;DHT22;70748;52.510;13.410;2023-09-12T05:21:38;18.60;76.60
81266;DHT22;70748;52.510;13.410;2023-09-12T05:24:04;18.70;76.40
81266;DHT22;70748;52.510;13.410;2023-09-12T05:26:29;18.80;76.10
81266;DHT22;70748;52.510;13.410;2023-09-12T05:28:55;18.90;76.00
81266;DHT22;70748;52.510;13.410;2023-09-12T05:31:21;19.00;75.80
81266;DHT22;70748;52.510;13.410;2023-09-12T05:33:46;19.20;75.50
81266;DHT22;70748;52.510;13.410;2023-09-12T05:36:12;19.20;75.40
81266;DHT22;70748;52.510;13.410;2023-09-12T05:38:37;19.40;75.40
81266;DHT22;70748;52.510;13.410;2023-09-12T05:41:03;19.40;74.90
81266;DHT22;70748;52.510;13.410;2023-09-12T05:43:28;19.60;74.90
81266;DHT22;70748;52.510;13.410;2023-09-12T05:45:54;19.60;74.40
81266;DHT22;70748;52.510;13.410;2023-09-12T05:48:20;19.70;74.30
81266;DHT22;70748;52.510;13.410;2023-09-12T05:50:45;19.80;74.00
81266;DHT22;70748;52.510;13.410;2023-09-12T05:53:11;19.90;73.60
81266;DHT22;70748;52.510;13.410;2023-09-12T05:55:36;19.90;73.20
81266;DHT22;70748;52.510;13.410;2023-09-12T05:58:02;19.90;72.80
81266;DHT22;70748;52.510;13.410;2023-09-12T06:00:31;20.10;72.60
81266;DHT22;70748;52.510;13.410;2023-09-12T06:02:56;20.10;72.20
81266;DHT22;70748;52.510;13.410;2023-09-12T06:05:22;20.20;71.80
81266;DHT22;70748;52.510;13.410;2023-09-12T06:07:47;20.40;72.40
81266;DHT22;70748;52.510;13.410;2023-09-12T06:10:13;20.50;71.20
81266;DHT22;70748;52.510;13.410;2023-09-12T06:12:39;20.60;70.80
81266;DHT22;70748;52.510;13.410;2023-09-12T06:15:04;20.70;70.70
81266;DHT22;70748;52.510;13.410;2023-09-12T06:17:30;20.80;70.00
81266;DHT22;70748;52.510;13.410;2023-09-12T06:19:56;20.90;70.10
81266;DHT22;70748;52.510;13.410;2023-09-12T06:22:21;21.10;69.60
81266;DHT22;70748;52.510;13.410;2023-09-12T06:24:49;21.20;69.10
81266;DHT22;70748;52.510;13.410;2023-09-12T06:27:14;21.40;68.10
81266;DHT22;70748;52.510;13.410;2023-09-12T06:29:44;21.50;68.20
81266;DHT22;70748;52.510;13.410;2023-09-12T06:32:10;21.70;68.50
81266;DHT22;70748;52.510;13.410;2023-09-12T06:34:36;21.80;68.40
81266;DHT22;70748;52.510;13.410;2023-09-12T06:37:01;21.90;66.50
81266;DHT22;70748;52.510;13.410;2023-09-12T06:39:27;22.10;66.50
81266;DHT22;70748;52.510;13.410;2023-09-12T06:41:52;22.20;65.80
81266;DHT22;70748;52.510;13.410;2023-09-12T06:44:18;22.40;65.20
81266;DHT22;70748;52.510;13.410;2023-09-12T06:46:43;22.50;65.40
81266;DHT22;70748;52.510;13.410;2023-09-12T06:49:09;22.70;65.50
81266;DHT22;70748;52.510;13.410;2023-09-12T06:51:34;22.90;65.60
81266;DHT22;70748;52.510;13.410;2023-09-12T06:54:00;23.10;65.10
81266;DHT22;70748;52.510;13.410;2023-09-12T06:56:26;23.30;64.10
81266;DHT22;70748;52.510;13.410;2023-09-12T06:58:52;23.50;63.60
81266;DHT22;70748;52.510;13.410;2023-09-12T07:01:20;23.90;63.30
81266;DHT22;70748;52.510;13.410;2023-09-12T07:03:46;24.60;61.20
81266;DHT22;70748;52.510;13.410;2023-09-12T07:06:11;25.90;56.40
81266;DHT22;70748;52.510;13.410;2023-09-12T07:08:37;27.40;53.40
81266;DHT22;70748;52.510;13.410;2023-09-12T07:11:04;29.10;50.40
81266;DHT22;70748;52.510;13.410;2023-09-12T07:13:31;30.60;45.80
81266;DHT22;70748;52.510;13.410;2023-09-12T07:15:57;31.70;44.40
81266;DHT22;70748;52.510;13.410;2023-09-12T07:18:23;32.90;41.40
81266;DHT22;70748;52.510;13.410;2023-09-12T07:21:01;34.00;39.80
81266;DHT22;70748;52.510;13.410;2023-09-12T07:23:27;35.00;35.80
81266;DHT22;70748;52.510;13.410;2023-09-12T07:25:53;35.90;34.60
81266;DHT22;70748;52.510;13.410;2023-09-12T07:28:20;36.60;33.60
81266;DHT22;70748;52.510;13.410;2023-09-12T07:30:46;37.20;32.20
81266;DHT22;70748;52.510;13.410;2023-09-12T07:33:12;37.40;32.40
81266;DHT22;70748;52.510;13.410;2023-09-12T07:35:38;37.10;31.80
81266;DHT22;70748;52.510;13.410;2023-09-12T07:38:03;36.50;31.10
81266;DHT22;70748;52.510;13.410;2023-09-12T07:40:29;35.70;33.50
81266;DHT22;70748;52.510;13.410;2023-09-12T07:42:55;35.00;33.60
81266;DHT22;70748;52.510;13.410;2023-09-12T07:45:20;34.50;35.20
81266;DHT22;70748;52.510;13.410;2023-09-12T07:47:46;34.30;34.10
81266;DHT22;70748;52.510;13.410;2023-09-12T07:50:12;34.10;34.00
81266;DHT22;70748;52.510;13.410;2023-09-12T07:52:37;33.90;34.30
81266;DHT22;70748;52.510;13.410;2023-09-12T07:55:03;33.80;33.30
81266;DHT22;70748;52.510;13.410;2023-09-12T07:57:29;33.80;33.80
81266;DHT22;70748;52.510;13.410;2023-09-12T07:59:55;33.70;35.90
81266;DHT22;70748;52.510;13.410;2023-09-12T08:02:21;33.50;35.20
81266;DHT22;70748;52.510;13.410;2023-09-12T08:04:46;33.20;35.80
81266;DHT22;70748;52.510;13.410;2023-09-12T08:07:12;32.90;37.60
81266;DHT22;70748;52.510;13.410;2023-09-12T08:12:33;32.20;36.90
81266;DHT22;70748;52.510;13.410;2023-09-12T08:14:58;31.90;38.30
81266;DHT22;70748;52.510;13.410;2023-09-12T08:17:25;31.50;38.10
81266;DHT22;70748;52.510;13.410;2023-09-12T08:19:51;31.30;37.60
81266;DHT22;70748;52.510;13.410;2023-09-12T08:22:16;31.10;38.30
81266;DHT22;70748;52.510;13.410;2023-09-12T08:24:42;30.90;38.50
81266;DHT22;70748;52.510;13.410;2023-09-12T08:27:08;31.30;38.50
81266;DHT22;70748;52.510;13.410;2023-09-12T08:29:35;32.10;37.10
81266;DHT22;70748;52.510;13.410;2023-09-12T08:32:01;33.40;34.50
81266;DHT22;70748;52.510;13.410;2023-09-12T08:34:26;35.00;32.40
81266;DHT22;70748;52.510;13.410;2023-09-12T08:36:52;36.50;31.70
81266;DHT22;70748;52.510;13.410;2023-09-12T08:39:22;37.90;30.20
81266;DHT22;70748;52.510;13.410;2023-09-12T08:41:49;39.40;28.20
81266;DHT22;70748;52.510;13.410;2023-09-12T08:44:14;40.60;26.40
81266;DHT22;70748;52.510;13.410;2023-09-12T08:46:41;41.70;25.90
81266;DHT22;70748;52.510;13.410;2023-09-12T08:49:07;42.60;25.70
81266;DHT22;70748;52.510;13.410;2023-09-12T08:51:33;43.60;24.70
81266;DHT22;70748;52.510;13.410;2023-09-12T08:53:58;44.30;23.50
81266;DHT22;70748;52.510;13.410;2023-09-12T08:56:25;44.70;23.30
81266;DHT22;70748;52.510;13.410;2023-09-12T08:58:50;45.10;22.90
81266;DHT22;70748;52.510;13.410;2023-09-12T09:01:16;45.30;22.70
81266;DHT22;70748;52.510;13.410;2023-09-12T09:03:43;45.40;22.70
81266;DHT22;70748;52.510;13.410;2023-09-12T09:06:09;45.60;23.30
81266;DHT22;70748;52.510;13.410;2023-09-12T09:08:35;45.90;22.50
81266;DHT22;70748;52.510;13.410;2023-09-12T09:11:01;46.30;21.60
81266;DHT22;70748;52.510;13.410;2023-09-12T09:13:34;46.50;21.80
81266;DHT22;70748;52.510;13.410;2023-09-12T09:16:13;46.80;21.80
81266;DHT22;70748;52.510;13.410;2023-09-12T09:21:17;46.80;21.30
81266;DHT22;70748;52.510;13.410;2023-09-12T09:23:46;46.90;21.20
81266;DHT22;70748;52.510;13.410;2023-09-12T09:26:12;47.00;21.10
81266;DHT22;70748;52.510;13.410;2023-09-12T09:28:37;47.20;20.90
81266;DHT22;70748;52.510;13.410;2023-09-12T09:31:04;46.80;21.30
81266;DHT22;70748;52.510;13.410;2023-09-12T09:33:35;46.10;21.30
81266;DHT22;70748;52.510;13.410;2023-09-12T09:36:04;44.40;22.30
81266;DHT22;70748;52.510;13.410;2023-09-12T09:38:30;43.10;23.70
81266;DHT22;70748;52.510;13.410;2023-09-12T09:40:55;42.20;24.60
81266;DHT22;70748;52.510;13.410;2023-09-12T09:43:21;41.90;25.20
81266;DHT22;70748;52.510;13.410;2023-09-12T09:45:47;41.50;25.20
81266;DHT22;70748;52.510;13.410;2023-09-12T09:48:22;40.70;26.00
81266;DHT22;70748;52.510;13.410;2023-09-12T09:50:48;39.80;26.70
81266;DHT22;70748;52.510;13.410;2023-09-12T09:53:14;38.50;28.30
81266;DHT22;70748;52.510;13.410;2023-09-12T09:55:39;37.50;29.40
81266;DHT22;70748;52.510;13.410;2023-09-12T09:58:06;36.50;30.60
81266;DHT22;70748;52.510;13.410;2023-09-12T10:00:36;35.70;31.70
81266;DHT22;70748;52.510;13.410;2023-09-12T10:03:03;34.80;33.20
81266;DHT22;70748;52.510;13.410;2023-09-12T10:05:29;34.10;34.40
81266;DHT22;70748;52.510;13.410;2023-09-12T10:07:56;33.70;35.50
81266;DHT22;70748;52.510;13.410;2023-09-12T10:10:23;33.00;36.50
81266;DHT22;70748;52.510;13.410;2023-09-12T10:12:50;32.50;37.70
81266;DHT22;70748;52.510;13.410;2023-09-12T10:15:19;32.10;38.80
81266;DHT22;70748;52.510;13.410;2023-09-12T10:17:51;31.80;38.90
81266;DHT22;70748;52.510;13.410;2023-09-12T10:20:21;31.60;39.70
81266;DHT22;70748;52.510;13.410;2023-09-12T10:23:11;31.50;40.10
81266;DHT22;70748;52.510;13.410;2023-09-12T10:25:35;31.90;40.30
81266;DHT22;70748;52.510;13.410;2023-09-12T10:28:02;32.70;38.20
81266;DHT22;70748;52.510;13.410;2023-09-12T10:30:28;33.30;37.10
81266;DHT22;70748;52.510;13.410;2023-09-12T10:32:54;33.50;36.30
81266;DHT22;70748;52.510;13.410;2023-09-12T10:35:20;33.30;36.90
81266;DHT22;70748;52.510;13.410;2023-09-12T10:37:46;32.80;36.60
81266;DHT22;70748;52.510;13.410;2023-09-12T10:40:14;31.90;38.00
81266;DHT22;70748;52.510;13.410;2023-09-12T10:42:40;31.50;39.40
81266;DHT22;70748;52.510;13.410;2023-09-12T10:45:06;31.20;39.70
81266;DHT22;70748;52.510;13.410;2023-09-12T10:47:34;31.30;40.20
81266;DHT22;70748;52.510;13.410;2023-09-12T10:50:01;31.20;40.00
81266;DHT22;70748;52.510;13.410;2023-09-12T10:52:27;31.40;40.00
81266;DHT22;70748;52.510;13.410;2023-09-12T10:54:53;31.30;39.50
81266;DHT22;70748;52.510;13.410;2023-09-12T10:57:19;31.20;39.90
81266;DHT22;70748;52.510;13.410;2023-09-12T11:04:55;31.20;39.60
81266;DHT22;70748;52.510;13.410;2023-09-12T11:12:46;31.50;39.90
81266;DHT22;70748;52.510;13.410;2023-09-12T11:15:13;31.60;39.50
81266;DHT22;70748;52.510;13.410;2023-09-12T11:17:43;31.90;39.90
81266;DHT22;70748;52.510;13.410;2023-09-12T11:20:09;33.20;37.90
81266;DHT22;70748;52.510;13.410;2023-09-12T11:22:45;34.00;36.40
81266;DHT22;70748;52.510;13.410;2023-09-12T11:25:18;34.20;35.80
81266;DHT22;70748;52.510;13.410;2023-09-12T11:27:46;33.80;36.20
81266;DHT22;70748;52.510;13.410;2023-09-12T11:30:26;33.50;36.80
81266;DHT22;70748;52.510;13.410;2023-09-12T11:32:56;33.30;38.40
81266;DHT22;70748;52.510;13.410;2023-09-12T11:35:23;33.30;37.60
81266;DHT22;70748;52.510;13.410;2023-09-12T11:37:49;33.60;36.80
81266;DHT22;70748;52.510;13.410;2023-09-12T11:40:16;34.20;35.60
81266;DHT22;70748;52.510;13.410;2023-09-12T11:42:42;34.90;34.80
81266;DHT22;70748;52.510;13.410;2023-09-12T11:45:11;35.80;33.20
81266;DHT22;70748;52.510;13.410;2023-09-12T11:47:40;37.30;31.30
81266;DHT22;70748;52.510;13.410;2023-09-12T11:50:06;37.50;30.10
81266;DHT22;70748;52.510;13.410;2023-09-12T11:52:35;36.80;31.00
81266;DHT22;70748;52.510;13.410;2023-09-12T11:55:01;36.20;32.40
81266;DHT22;70748;52.510;13.410;2023-09-12T11:57:26;35.90;32.60
81266;DHT22;70748;52.510;13.410;2023-09-12T11:59:52;35.50;33.50
81266;DHT22;70748;52.510;13.410;2023-09-12T12:02:18;36.60;32.10
81266;DHT22;70748;52.510;13.410;2023-09-12T12:04:44;37.90;30.00
81266;DHT22;70748;52.510;13.410;2023-09-12T12:07:12;38.90;28.90
81266;DHT22;70748;52.510;13.410;2023-09-12T12:09:38;39.20;28.40
81266;DHT22;70748;52.510;13.410;2023-09-12T12:12:10;38.60;28.90
81266;DHT22;70748;52.510;13.410;2023-09-12T12:14:38;38.60;29.50
81266;DHT22;70748;52.510;13.410;2023-09-12T12:17:10;39.30;28.40
81266;DHT22;70748;52.510;13.410;2023-09-12T12:19:36;40.50;27.30
81266;DHT22;70748;52.510;13.410;2023-09-12T12:22:02;41.50;26.80
81266;DHT22;70748;52.510;13.410;2023-09-12T12:24:37;42.10;25.60
81266;DHT22;70748;52.510;13.410;2023-09-12T12:27:06;42.90;25.20
81266;DHT22;70748;52.510;13.410;2023-09-12T12:29:33;42.70;24.90
81266;DHT22;70748;52.510;13.410;2023-09-12T12:31:59;43.40;24.80
81266;DHT22;70748;52.510;13.410;2023-09-12T12:34:25;43.90;24.50
81266;DHT22;70748;52.510;13.410;2023-09-12T12:36:51;44.60;23.40
81266;DHT22;70748;52.510;13.410;2023-09-12T12:39:18;44.80;22.90
81266;DHT22;70748;52.510;13.410;2023-09-12T12:41:44;45.20;23.00
81266;DHT22;70748;52.510;13.410;2023-09-12T12:44:09;45.60;22.50
81266;DHT22;70748;52.510;13.410;2023-09-12T12:46:47;45.90;22.40
81266;DHT22;70748;52.510;13.410;2023-09-12T12:49:14;45.80;22.00
81266;DHT22;70748;52.510;13.410;2023-09-12T12:51:40;45.70;22.70
81266;DHT22;70748;52.510;13.410;2023-09-12T12:54:07;46.00;22.00
81266;DHT22;70748;52.510;13.410;2023-09-12T12:56:33;46.00;21.70
81266;DHT22;70748;52.510;13.410;2023-09-12T12:58:59;45.60;21.80
81266;DHT22;70748;52.510;13.410;2023-09-12T13:01:28;45.70;22.40
81266;DHT22;70748;52.510;13.410;2023-09-12T13:03:53;45.70;22.30
81266;DHT22;70748;52.510;13.410;2023-09-12T13:06:21;45.80;22.10
81266;DHT22;70748;52.510;13.410;2023-09-12T13:08:48;45.40;22.20
81266;DHT22;70748;52.510;13.410;2023-09-12T13:11:14;45.80;22.20
81266;DHT22;70748;52.510;13.410;2023-09-12T13:13:43;46.10;22.10
81266;DHT22;70748;52.510;13.410;2023-09-12T13:16:10;46.10;21.50
81266;DHT22;70748;52.510;13.410;2023-09-12T13:18:36;45.90;21.90
81266;DHT22;70748;52.510;13.410;2023-09-12T13:21:02;45.70;22.20
81266;DHT22;70748;52.510;13.410;2023-09-12T13:23:28;45.50;22.20
81266;DHT22;70748;52.510;13.410;2023-09-12T13:25:54;45.30;21.90
81266;DHT22;70748;52.510;13.410;2023-09-12T13:28:19;45.00;22.00
81266;DHT22;70748;52.510;13.410;2023-09-12T13:30:45;45.10;22.20
81266;DHT22;70748;52.510;13.410;2023-09-12T13:33:11;45.10;22.10
81266;DHT22;70748;52.510;13.410;2023-09-12T13:35:37;44.50;22.40
81266;DHT22;70748;52.510;13.410;2023-09-12T13:38:03;43.40;23.50
81266;DHT22;70748;52.510;13.410;2023-09-12T13:40:37;41.80;24.60
81266;DHT22;70748;52.510;13.410;2023-09-12T13:43:04;40.50;26.70
81266;DHT22;70748;52.510;13.410;2023-09-12T13:45:30;39.30;27.30
81266;DHT22;70748;52.510;13.410;2023-09-12T13:47:57;38.40;28.10
81266;DHT22;70748;52.510;13.410;2023-09-12T13:50:22;37.70;29.50
81266;DHT22;70748;52.510;13.410;2023-09-12T13:52:48;37.00;29.40
81266;DHT22;70748;52.510;13.410;2023-09-12T13:55:14;36.50;30.00
81266;DHT22;70748;52.510;13.410;2023-09-12T13:57:41;35.90;30.80
81266;DHT22;70748;52.510;13.410;2023-09-12T14:00:08;35.50;31.50
81266;DHT22;70748;52.510;13.410;2023-09-12T14:02:34;35.10;32.00
81266;DHT22;70748;52.510;13.410;2023-09-12T14:04:59;34.80;33.30
81266;DHT22;70748;52.510;13.410;2023-09-12T14:07:26;34.50;33.00
81266;DHT22;70748;52.510;13.410;2023-09-12T14:09:51;34.10;33.80
81266;DHT22;70748;52.510;13.410;2023-09-12T14:12:20;34.00;34.80
81266;DHT22;70748;52.510;13.410;2023-09-12T14:14:45;33.70;35.80
81266;DHT22;70748;52.510;13.410;2023-09-12T14:17:11;33.60;34.80
81266;DHT22;70748;52.510;13.410;2023-09-12T14:19:37;33.40;35.40
81266;DHT22;70748;52.510;13.410;2023-09-12T14:22:02;33.40;35.00
81266;DHT22;70748;52.510;13.410;2023-09-12T14:24:28;33.30;35.10
81266;DHT22;70748;52.510;13.410;2023-09-12T14:26:54;33.10;35.70
81266;DHT22;70748;52.510;13.410;2023-09-12T14:29:19;33.10;35.30
81266;DHT22;70748;52.510;13.410;2023-09-12T14:31:45;32.90;35.90
81266;DHT22;70748;52.510;13.410;2023-09-12T14:34:18;32.70;35.40
81266;DHT22;70748;52.510;13.410;2023-09-12T14:36:44;32.40;36.60
81266;DHT22;70748;52.510;13.410;2023-09-12T14:39:11;32.10;36.60
81266;DHT22;70748;52.510;13.410;2023-09-12T14:41:37;32.10;37.30
81266;DHT22;70748;52.510;13.410;2023-09-12T14:44:02;31.90;37.10
81266;DHT22;70748;52.510;13.410;2023-09-12T14:46:28;31.80;37.30
81266;DHT22;70748;52.510;13.410;2023-09-12T14:48:53;31.70;37.80
81266;DHT22;70748;52.510;13.410;2023-09-12T14:51:19;31.50;38.80
81266;DHT22;70748;52.510;13.410;2023-09-12T14:53:44;31.50;38.90
81266;DHT22;70748;52.510;13.410;2023-09-12T14:56:11;31.40;40.30
81266;DHT22;70748;52.510;13.410;2023-09-12T14:58:37;31.20;41.60
81266;DHT22;70748;52.510;13.410;2023-09-12T15:01:03;30.90;42.40
81266;DHT22;70748;52.510;13.410;2023-09-12T15:03:29;30.50;43.10
81266;DHT22;70748;52.510;13.410;2023-09-12T15:05:55;30.30;43.50
81266;DHT22;70748;52.510;13.410;2023-09-12T15:08:20;30.10;44.00
81266;DHT22;70748;52.510;13.410;2023-09-12T15:10:46;29.90;43.70
81266;DHT22;70748;52.510;13.410;2023-09-12T15:13:11;29.60;43.90
81266;DHT22;70748;52.510;13.410;2023-09-12T15:15:42;29.50;44.30
81266;DHT22;70748;52.510;13.410;2023-09-12T15:18:07;29.30;45.20
81266;DHT22;70748;52.510;13.410;2023-09-12T15:20:36;29.20;45.30
81266;DHT22;70748;52.510;13.410;2023-09-12T15:23:02;29.10;45.70
81266;DHT22;70748;52.510;13.410;2023-09-12T15:25:27;28.80;46.00
81266;DHT22;70748;52.510;13.410;2023-09-12T15:27:53;28.60;46.00
81266;DHT22;70748;52.510;13.410;2023-09-12T15:30:18;28.50;46.30
81266;DHT22;70748;52.510;13.410;2023-09-12T15:32:44;28.30;45.90